Gerrardstown, West Virginia
Current Conditions -  °F | °C
As of 5:53 PM on Thursday 27 Nov 2014 (Local Time) from KMRB Reporting Station
Overcast Overcast  
Wind Chill: 32°   Ceiling: 7500
Heat Index: 39°   Visibility: 10mi
Dew Point: 26°   Wind: 10mph
Humidity: 60%   Direction: 270°W
Pressure: 30.11"   Gusts: NA
Location:  39.37°N, 78.1°W
Report Text: KMRB 272253Z 27009KT 10SM FEW047 OVC075 04/M03 A3011 RMK AO2 SLP200 T00391033
Loading
Personal Weather Stations






























Interactive Weather Map New forecast layout! Learn more

10-Day Weather Forecast

Advertisements
Track Severe Weather on mobile